createdAt,value
2022-08-22T00:00:56.982Z,96.70
2022-08-22T00:02:45.720Z,96.70
2022-08-22T00:03:00.667Z,96.70
2022-08-22T00:03:34.193Z,96.70
2022-08-22T00:06:12.374Z,96.70
2022-08-22T00:08:54.512Z,96.70
2022-08-22T00:11:43.243Z,96.70
2022-08-22T00:14:20.234Z,96.70
2022-08-22T00:16:57.486Z,96.70
2022-08-22T00:19:40.124Z,96.70
2022-08-22T00:22:16.828Z,96.70
2022-08-22T00:24:49.394Z,96.70
2022-08-22T00:27:21.892Z,96.70
2022-08-22T00:29:55.452Z,96.70
2022-08-22T00:32:29.623Z,96.70
2022-08-22T00:35:00.804Z,96.70
2022-08-22T00:37:35.104Z,96.70
2022-08-22T00:40:21.269Z,96.70
2022-08-22T00:43:18.682Z,96.70
2022-08-22T00:45:58.922Z,96.70
2022-08-22T00:48:56.374Z,96.70
2022-08-22T00:51:44.273Z,96.70
2022-08-22T00:54:17.609Z,96.70
2022-08-22T00:57:18.843Z,96.70
2022-08-22T01:00:16.902Z,96.70
2022-08-22T01:03:11.492Z,96.70
2022-08-22T01:06:01.423Z,96.70
2022-08-22T01:08:47.013Z,96.70
2022-08-22T01:11:42.275Z,96.70
2022-08-22T01:14:34.195Z,96.70
2022-08-22T01:17:43.025Z,96.70
2022-08-22T01:21:08.033Z,96.70
2022-08-22T01:24:38.762Z,96.70
2022-08-22T01:27:52.923Z,96.70
2022-08-22T01:30:53.313Z,96.70
2022-08-22T01:33:52.323Z,96.70
2022-08-22T01:36:55.684Z,96.70
2022-08-22T01:39:52.916Z,96.70
2022-08-22T01:42:51.234Z,96.70
2022-08-22T01:45:42.804Z,96.70
2022-08-22T01:48:17.183Z,96.70
2022-08-22T01:50:49.746Z,96.70
2022-08-22T01:53:24.793Z,96.70
2022-08-22T01:56:13.416Z,96.70
2022-08-22T01:58:54.004Z,96.70
2022-08-22T02:01:31.245Z,96.70
2022-08-22T02:04:05.723Z,96.70
2022-08-22T02:06:44.884Z,96.70
2022-08-22T02:09:30.262Z,96.70
2022-08-22T02:12:21.593Z,96.70
2022-08-22T02:14:59.354Z,96.70
2022-08-22T02:17:32.353Z,96.70
2022-08-22T02:20:07.413Z,96.70
2022-08-22T02:22:53.662Z,96.70
2022-08-22T02:25:26.264Z,96.70
2022-08-22T02:28:03.843Z,96.70
2022-08-22T02:30:47.324Z,96.70
2022-08-22T02:33:26.202Z,96.70
2022-08-22T02:36:00.462Z,96.70
2022-08-22T02:38:35.633Z,96.70
2022-08-22T02:41:16.684Z,96.70
2022-08-22T02:43:51.332Z,96.70
2022-08-22T02:46:28.656Z,96.70
2022-08-22T02:49:04.833Z,96.70
2022-08-22T02:51:41.653Z,96.70
2022-08-22T02:54:17.246Z,96.70
2022-08-22T02:56:52.718Z,96.70
2022-08-22T02:59:33.037Z,96.70
2022-08-22T03:02:32.607Z,96.70
2022-08-22T03:05:03.769Z,96.70
2022-08-22T03:07:39.496Z,96.70
2022-08-22T03:10:18.937Z,96.70
2022-08-22T03:13:00.846Z,96.70
2022-08-22T03:15:37.455Z,96.70
2022-08-22T03:18:16.958Z,96.70
2022-08-22T03:20:53.236Z,96.70
2022-08-22T03:23:25.976Z,96.70
2022-08-22T03:26:02.276Z,96.70
2022-08-22T03:28:59.442Z,96.70
2022-08-22T03:31:31.725Z,96.70
2022-08-22T03:34:20.529Z,96.70
2022-08-22T03:36:58.615Z,96.70
2022-08-22T03:39:48.108Z,96.70
2022-08-22T03:43:00.896Z,96.70
2022-08-22T03:46:12.619Z,96.70
2022-08-22T03:49:05.546Z,96.70
2022-08-22T03:51:48.345Z,96.70
2022-08-22T03:54:57.890Z,96.70
2022-08-22T03:57:55.449Z,96.70
2022-08-22T04:00:32.606Z,96.70
2022-08-22T04:03:35.566Z,96.70
2022-08-22T04:06:39.089Z,96.70
2022-08-22T04:09:32.268Z,96.70
2022-08-22T04:12:23.714Z,96.70
2022-08-22T04:15:29.824Z,96.70
2022-08-22T04:18:28.619Z,96.70
2022-08-22T04:21:29.797Z,96.70
2022-08-22T04:24:20.732Z,96.70
2022-08-22T04:26:52.966Z,96.70
2022-08-22T04:29:29.867Z,96.70
2022-08-22T04:32:04.421Z,96.70
2022-08-22T04:34:38.302Z,96.70
2022-08-22T04:37:15.053Z,96.70
2022-08-22T04:39:50.830Z,96.70
2022-08-22T04:42:37.138Z,96.70
2022-08-22T04:45:10.982Z,96.70
2022-08-22T04:47:42.113Z,96.70
2022-08-22T04:50:17.853Z,96.70
2022-08-22T04:53:04.234Z,96.70
2022-08-22T04:55:37.754Z,96.70
2022-08-22T04:58:19.904Z,96.70
2022-08-22T05:00:57.682Z,96.70
2022-08-22T05:03:29.184Z,96.70
2022-08-22T05:06:01.123Z,96.70
2022-08-22T05:08:34.122Z,96.70
2022-08-22T05:11:06.414Z,96.70
2022-08-22T05:13:41.763Z,96.70
2022-08-22T05:16:15.242Z,96.70
2022-08-22T05:18:49.134Z,96.70
2022-08-22T05:21:20.994Z,96.70
2022-08-22T05:23:54.422Z,96.70
2022-08-22T05:26:22.794Z,96.70
2022-08-22T05:28:54.982Z,96.70
2022-08-22T05:31:27.133Z,96.70
2022-08-22T05:33:59.854Z,96.70
2022-08-22T05:36:32.552Z,96.70
2022-08-22T05:39:09.484Z,96.70
2022-08-22T05:41:39.491Z,96.70
2022-08-22T05:44:16.994Z,96.70
2022-08-22T05:46:47.353Z,96.70
2022-08-22T05:49:20.203Z,96.70
2022-08-22T05:52:04.934Z,96.70
2022-08-22T05:54:47.403Z,96.70
2022-08-22T05:57:26.073Z,96.70
2022-08-22T06:00:01.223Z,96.70
2022-08-22T06:02:39.933Z,96.70
2022-08-22T06:05:12.045Z,96.70
2022-08-22T06:07:45.466Z,96.70
2022-08-22T06:10:23.772Z,96.70
2022-08-22T06:12:58.615Z,96.70
2022-08-22T06:15:34.592Z,96.70
2022-08-22T06:18:10.812Z,96.70
2022-08-22T06:20:43.683Z,96.70
2022-08-22T06:23:16.305Z,96.70
2022-08-22T06:25:50.611Z,96.70
2022-08-22T06:28:22.372Z,96.70
2022-08-22T06:30:53.750Z,96.70
2022-08-22T06:33:26.240Z,96.70
2022-08-22T06:36:20.654Z,96.70
2022-08-22T06:39:03.521Z,96.70
2022-08-22T06:41:36.505Z,96.70
2022-08-22T06:44:06.902Z,96.70
2022-08-22T06:46:38.417Z,96.70
2022-08-22T06:49:08.701Z,96.70
2022-08-22T06:51:38.472Z,96.70
2022-08-22T06:54:16.165Z,96.70
2022-08-22T06:56:48.633Z,96.70
2022-08-22T06:59:19.337Z,96.70
2022-08-22T07:01:52.145Z,96.70
2022-08-22T07:04:26.864Z,96.70
2022-08-22T07:06:57.165Z,96.70
2022-08-22T07:09:28.435Z,96.70
2022-08-22T07:12:01.541Z,96.70
2022-08-22T07:14:33.332Z,96.70
2022-08-22T07:17:04.357Z,96.70
2022-08-22T07:19:35.401Z,96.70
2022-08-22T07:22:14.123Z,96.70
2022-08-22T07:24:47.382Z,96.70
2022-08-22T07:27:31.667Z,96.70
2022-08-22T07:30:35.332Z,96.70
2022-08-22T07:33:26.286Z,96.70
2022-08-22T07:36:01.355Z,96.70
2022-08-22T07:38:43.002Z,96.70
2022-08-22T07:41:16.115Z,96.70
2022-08-22T07:43:49.776Z,96.70
2022-08-22T07:46:29.145Z,96.70
2022-08-22T07:49:10.056Z,96.70
2022-08-22T07:51:44.653Z,96.70
2022-08-22T07:54:16.504Z,96.70
2022-08-22T07:56:54.694Z,96.70
2022-08-22T07:59:27.515Z,96.70
2022-08-22T08:01:59.206Z,96.70
2022-08-22T08:04:33.456Z,96.70
2022-08-22T08:07:06.578Z,96.70
2022-08-22T08:09:39.244Z,96.70
2022-08-22T08:12:10.686Z,96.70
2022-08-22T08:14:44.663Z,96.70
2022-08-22T08:17:19.593Z,96.70
2022-08-22T08:19:48.755Z,96.70
2022-08-22T08:22:20.349Z,96.70
2022-08-22T08:25:09.696Z,96.70
2022-08-22T08:28:02.305Z,96.70
2022-08-22T08:30:40.154Z,96.70
2022-08-22T08:33:25.296Z,96.70
2022-08-22T08:36:04.808Z,96.70
2022-08-22T08:38:42.664Z,96.70
2022-08-22T08:41:37.074Z,96.70
2022-08-22T08:44:21.893Z,96.70
2022-08-22T08:47:18.136Z,96.70
2022-08-22T08:50:18.805Z,96.70
2022-08-22T08:53:25.496Z,96.70
2022-08-22T08:55:59.945Z,96.70
2022-08-22T08:58:37.990Z,96.70
2022-08-22T09:01:21.599Z,96.70
2022-08-22T09:04:20.363Z,96.70
2022-08-22T09:07:21.809Z,96.70
2022-08-22T09:10:11.684Z,96.70
2022-08-22T09:15:55.015Z,96.70
2022-08-22T09:18:56.855Z,96.70
2022-08-22T09:21:50.624Z,96.70
2022-08-22T09:25:01.153Z,96.70
2022-08-22T09:27:37.683Z,96.70
2022-08-22T09:30:11.587Z,96.70
2022-08-22T09:32:49.033Z,96.70
2022-08-22T09:35:25.314Z,96.70
2022-08-22T09:38:16.874Z,96.70
2022-08-22T09:40:55.924Z,96.70
2022-08-22T09:43:39.599Z,96.70
2022-08-22T09:46:18.972Z,96.70
2022-08-22T09:49:06.482Z,96.70
2022-08-22T09:51:45.454Z,96.70
2022-08-22T09:54:39.904Z,96.70
2022-08-22T09:57:22.775Z,96.70
2022-08-22T10:00:22.188Z,96.70
2022-08-22T10:03:03.746Z,96.70
2022-08-22T10:05:44.366Z,96.70
2022-08-22T10:08:31.667Z,96.70
2022-08-22T10:11:27.214Z,96.70
2022-08-22T10:14:08.804Z,96.70
2022-08-22T10:17:00.003Z,96.70
2022-08-22T10:19:33.194Z,96.70
2022-08-22T10:22:37.434Z,96.70
2022-08-22T10:25:34.638Z,96.70
2022-08-22T10:28:31.806Z,96.70
2022-08-22T10:31:12.014Z,96.70
2022-08-22T10:33:47.065Z,96.70
2022-08-22T10:36:23.463Z,96.70
2022-08-22T10:38:56.084Z,96.70
2022-08-22T10:41:32.114Z,96.70
2022-08-22T10:44:10.879Z,96.70
2022-08-22T10:46:47.203Z,96.70
2022-08-22T10:49:28.900Z,96.70
2022-08-22T10:52:14.701Z,96.70
2022-08-22T10:54:52.509Z,96.70
2022-08-22T10:57:52.855Z,96.70
2022-08-22T11:00:46.460Z,96.70
2022-08-22T11:03:25.501Z,96.70
2022-08-22T11:06:00.833Z,96.70
2022-08-22T11:08:56.268Z,96.70
2022-08-22T11:11:45.655Z,96.70
2022-08-22T11:14:35.360Z,96.70
2022-08-22T11:17:30.941Z,96.70
2022-08-22T11:20:19.804Z,96.70
2022-08-22T11:23:07.760Z,96.70
2022-08-22T11:25:54.002Z,96.70
2022-08-22T11:28:50.823Z,96.70
2022-08-22T11:31:31.835Z,96.70
2022-08-22T11:34:20.550Z,96.70
2022-08-22T11:36:53.731Z,96.70
2022-08-22T11:39:31.166Z,96.70
2022-08-22T11:42:07.325Z,96.70
2022-08-22T11:44:50.639Z,96.70
2022-08-22T11:47:26.347Z,96.70
2022-08-22T11:50:03.171Z,96.70
2022-08-22T11:52:54.302Z,96.70
2022-08-22T11:55:34.647Z,96.70
2022-08-22T11:58:29.253Z,96.70
2022-08-22T12:01:03.949Z,96.70
2022-08-22T12:04:04.810Z,96.70
2022-08-22T12:07:16.271Z,96.70
2022-08-22T12:09:52.674Z,96.70
2022-08-22T12:12:36.367Z,96.70
2022-08-22T12:15:18.371Z,96.70
2022-08-22T12:18:36.094Z,96.70
2022-08-22T12:21:17.146Z,96.70
2022-08-22T12:24:21.651Z,96.10
2022-08-22T12:27:07.880Z,95.20
2022-08-22T12:29:45.388Z,95.40
2022-08-22T12:32:49.401Z,94.20
2022-08-22T12:35:35.630Z,93.80
2022-08-22T12:38:29.073Z,94.80
2022-08-22T12:41:28.484Z,93.20
2022-08-22T12:44:32.925Z,93.60
2022-08-22T12:47:32.184Z,91.80
2022-08-22T12:50:24.166Z,90.30
2022-08-22T12:53:07.496Z,88.10
2022-08-22T12:56:05.661Z,87.70
2022-08-22T12:58:54.828Z,85.90
2022-08-22T13:01:34.484Z,90.00
2022-08-22T13:04:32.532Z,89.50
2022-08-22T13:07:09.096Z,88.40
2022-08-22T13:09:39.824Z,90.30
2022-08-22T13:12:24.369Z,89.10
2022-08-22T13:14:56.923Z,90.10
2022-08-22T13:17:27.127Z,89.90
2022-08-22T13:20:09.605Z,89.60
2022-08-22T13:22:45.464Z,91.20
2022-08-22T13:25:26.514Z,91.30
2022-08-22T13:27:59.218Z,91.50
2022-08-22T13:30:33.155Z,91.60
2022-08-22T13:33:10.020Z,96.70
2022-08-22T13:35:51.693Z,96.70
2022-08-22T13:38:25.679Z,96.70
2022-08-22T13:40:57.203Z,96.70
2022-08-22T13:43:30.674Z,96.70
2022-08-22T13:46:02.666Z,96.70
2022-08-22T13:48:47.167Z,96.70
2022-08-22T13:51:25.150Z,96.70
2022-08-22T13:54:02.507Z,96.70
2022-08-22T13:56:50.755Z,96.70
2022-08-22T13:59:50.136Z,96.70
2022-08-22T14:02:34.772Z,96.70
2022-08-22T14:05:10.792Z,96.70
2022-08-22T14:07:41.302Z,96.70
2022-08-22T14:10:20.030Z,95.70
2022-08-22T14:13:18.841Z,95.70
2022-08-22T14:15:49.080Z,96.20
2022-08-22T14:18:30.039Z,96.50
2022-08-22T14:21:40.641Z,96.70
2022-08-22T14:24:18.995Z,95.30
2022-08-22T14:27:05.631Z,95.50
2022-08-22T14:29:44.425Z,96.40
2022-08-22T14:32:37.660Z,96.70
2022-08-22T14:35:23.219Z,96.70
2022-08-22T14:38:18.523Z,96.70
2022-08-22T14:40:57.261Z,96.70
2022-08-22T14:43:47.670Z,96.70
2022-08-22T14:46:23.433Z,96.70
2022-08-22T14:49:28.845Z,96.70
2022-08-22T14:52:10.940Z,94.90
2022-08-22T14:55:07.568Z,93.50
2022-08-22T14:57:41.640Z,93.30
2022-08-22T15:00:13.026Z,92.70
2022-08-22T15:02:43.064Z,91.40
2022-08-22T15:05:18.983Z,89.70
2022-08-22T15:07:55.389Z,89.20
2022-08-22T15:10:31.593Z,90.80
2022-08-22T15:13:04.734Z,92.10
2022-08-22T15:15:41.086Z,90.60
2022-08-22T15:18:19.903Z,89.30
2022-08-22T15:21:02.003Z,87.90
2022-08-22T15:23:33.554Z,87.80
2022-08-22T15:26:24.502Z,86.40
2022-08-22T15:29:09.325Z,83.80
2022-08-22T15:31:41.701Z,83.40
2022-08-22T15:34:23.563Z,86.40
2022-08-22T15:37:32.475Z,86.00
2022-08-22T15:40:12.054Z,85.00
2022-08-22T15:42:44.934Z,85.00
2022-08-22T15:45:23.422Z,84.70
2022-08-22T15:47:53.892Z,83.60
2022-08-22T15:50:32.343Z,83.40
2022-08-22T15:53:24.643Z,82.80
2022-08-22T15:56:24.502Z,82.50
2022-08-22T15:59:26.639Z,82.10
2022-08-22T16:01:57.789Z,82.00
2022-08-22T16:04:40.848Z,81.90
2022-08-22T16:07:38.902Z,82.50
2022-08-22T16:10:13.324Z,83.50
2022-08-22T16:12:46.244Z,82.40
2022-08-22T16:15:56.702Z,81.90
2022-08-22T16:19:02.490Z,80.70
2022-08-22T16:22:07.842Z,80.10
2022-08-22T16:24:59.722Z,79.80
2022-08-22T16:27:30.953Z,79.00
2022-08-22T16:30:11.304Z,77.60
2022-08-22T16:32:50.624Z,77.20
2022-08-22T16:35:51.107Z,79.50
2022-08-22T16:38:26.197Z,83.50
2022-08-22T16:40:54.517Z,85.60
2022-08-22T16:43:24.993Z,87.60
2022-08-22T16:45:58.202Z,85.90
2022-08-22T16:48:33.801Z,82.60
2022-08-22T16:51:07.633Z,81.30
2022-08-22T16:54:11.483Z,80.10
2022-08-22T16:57:03.163Z,79.10
2022-08-22T17:00:00.013Z,78.80
2022-08-22T17:03:04.052Z,78.90
2022-08-22T17:05:47.752Z,79.10
2022-08-22T17:08:36.692Z,79.70
2022-08-22T17:11:19.571Z,81.10
2022-08-22T17:14:09.319Z,81.80
2022-08-22T17:16:54.041Z,83.10
2022-08-22T17:19:40.361Z,84.10
2022-08-22T17:22:19.095Z,86.50
2022-08-22T17:24:56.523Z,90.70
2022-08-22T17:27:31.984Z,92.90
2022-08-22T17:30:09.532Z,94.70
2022-08-22T17:33:03.124Z,96.50
2022-08-22T17:35:51.722Z,96.70
2022-08-22T17:38:30.683Z,96.70
2022-08-22T17:41:12.886Z,96.70
2022-08-22T17:43:57.043Z,96.70
2022-08-22T17:46:40.454Z,96.70
2022-08-22T17:49:26.723Z,96.70
2022-08-22T17:51:59.746Z,96.70
2022-08-22T17:54:35.905Z,96.70
2022-08-22T17:57:10.015Z,96.70
2022-08-22T17:59:47.273Z,96.70
2022-08-22T18:02:19.523Z,96.70
2022-08-22T18:04:58.642Z,96.70
2022-08-22T18:07:34.013Z,96.70
2022-08-22T18:10:09.372Z,96.70
2022-08-22T18:12:44.873Z,96.70
2022-08-22T18:15:21.922Z,96.70
2022-08-22T18:17:55.738Z,96.70
2022-08-22T18:20:31.014Z,96.70
2022-08-22T18:23:08.153Z,96.70
2022-08-22T18:26:04.713Z,96.70
2022-08-22T18:28:41.262Z,96.70
2022-08-22T18:31:36.400Z,96.70
2022-08-22T18:34:16.095Z,96.70
2022-08-22T18:36:55.391Z,96.70
2022-08-22T18:39:29.153Z,96.70
2022-08-22T18:42:04.813Z,96.70
2022-08-22T18:44:40.024Z,96.70
2022-08-22T18:47:17.127Z,96.70
2022-08-22T18:49:54.497Z,96.70
2022-08-22T18:52:38.323Z,96.70
2022-08-22T18:55:48.715Z,96.70
2022-08-22T18:58:47.373Z,96.70
2022-08-22T19:01:32.041Z,96.70
2022-08-22T19:04:45.874Z,96.70
2022-08-22T19:07:53.926Z,96.70
2022-08-22T19:10:43.489Z,96.70
2022-08-22T19:13:29.996Z,96.70
2022-08-22T19:16:13.851Z,96.70
2022-08-22T19:18:44.737Z,96.70
2022-08-22T19:21:39.866Z,96.70
2022-08-22T19:24:12.927Z,96.70
2022-08-22T19:26:43.519Z,96.70
2022-08-22T19:29:48.379Z,96.70
2022-08-22T19:32:51.505Z,96.70
2022-08-22T19:35:22.656Z,96.70
2022-08-22T19:37:54.022Z,96.70
2022-08-22T19:40:53.742Z,96.70
2022-08-22T19:43:31.887Z,96.70
2022-08-22T19:46:03.854Z,96.70
2022-08-22T19:48:44.616Z,96.70
2022-08-22T19:51:26.434Z,96.70
2022-08-22T19:54:16.935Z,96.70
2022-08-22T19:57:03.338Z,96.70
2022-08-22T19:59:37.936Z,96.70
2022-08-22T20:02:22.180Z,96.70
2022-08-22T20:05:04.349Z,96.70
2022-08-22T20:07:46.031Z,96.70
2022-08-22T20:10:28.280Z,96.70
2022-08-22T20:13:05.672Z,96.70
2022-08-22T20:16:10.730Z,96.70
2022-08-22T20:19:16.901Z,96.70
2022-08-22T20:21:53.912Z,96.70
2022-08-22T20:24:25.723Z,96.70
2022-08-22T20:27:14.467Z,96.70
2022-08-22T20:29:49.367Z,96.70
2022-08-22T20:32:23.618Z,96.70
2022-08-22T20:34:57.441Z,96.70
2022-08-22T20:37:45.505Z,96.70
2022-08-22T20:40:55.976Z,96.70
2022-08-22T20:43:17.533Z,96.70
2022-08-22T20:45:59.792Z,96.70
2022-08-22T20:48:36.668Z,96.70
2022-08-22T20:51:05.843Z,96.70
2022-08-22T20:53:34.624Z,96.70
2022-08-22T20:56:03.455Z,96.70
2022-08-22T20:58:38.586Z,96.70
2022-08-22T21:01:10.312Z,96.70
2022-08-22T21:03:42.772Z,96.70
2022-08-22T21:06:13.535Z,96.70
2022-08-22T21:08:42.157Z,96.70
2022-08-22T21:11:28.862Z,96.70
2022-08-22T21:13:56.570Z,96.70
2022-08-22T21:16:31.583Z,96.70
2022-08-22T21:19:04.370Z,96.70
2022-08-22T21:21:34.741Z,96.70
2022-08-22T21:24:05.913Z,96.70
2022-08-22T21:26:37.170Z,96.70
2022-08-22T21:29:07.734Z,96.70
2022-08-22T21:31:48.763Z,96.70
2022-08-22T21:34:21.096Z,96.70
2022-08-22T21:36:50.923Z,96.70
2022-08-22T21:39:21.798Z,96.70
2022-08-22T21:41:51.919Z,96.70
2022-08-22T21:44:28.536Z,96.70
2022-08-22T21:46:57.959Z,96.70
2022-08-22T21:49:29.717Z,96.70
2022-08-22T21:51:57.420Z,96.70
2022-08-22T21:54:40.228Z,96.70
2022-08-22T21:57:33.910Z,96.70
2022-08-22T22:00:02.338Z,96.70
2022-08-22T22:02:42.004Z,96.70
2022-08-22T22:05:23.997Z,96.70
2022-08-22T22:07:52.303Z,96.70
2022-08-22T22:10:22.883Z,96.70
2022-08-22T22:12:53.302Z,96.70
2022-08-22T22:15:23.934Z,96.70
2022-08-22T22:17:52.533Z,96.70
2022-08-22T22:20:24.476Z,96.70
2022-08-22T22:22:52.375Z,96.70
2022-08-22T22:25:40.853Z,96.70
2022-08-22T22:28:13.154Z,96.70
2022-08-22T22:30:41.759Z,96.70
2022-08-22T22:33:09.793Z,96.70
2022-08-22T22:35:41.144Z,96.70
2022-08-22T22:38:09.678Z,96.70
2022-08-22T22:40:37.704Z,96.70
2022-08-22T22:43:05.613Z,96.70
2022-08-22T22:45:33.505Z,96.70
2022-08-22T22:48:01.540Z,96.70
2022-08-22T22:50:29.393Z,96.70
2022-08-22T22:52:58.684Z,96.70
2022-08-22T22:55:27.010Z,96.70
2022-08-22T22:57:59.290Z,96.70
2022-08-22T23:00:30.767Z,96.70
2022-08-22T23:03:01.450Z,96.70
2022-08-22T23:05:30.756Z,96.70
2022-08-22T23:08:01.622Z,96.70
2022-08-22T23:10:31.594Z,96.70
2022-08-22T23:13:00.116Z,96.70
2022-08-22T23:15:28.944Z,96.70
2022-08-22T23:17:57.204Z,96.70
2022-08-22T23:20:25.895Z,96.70
2022-08-22T23:22:54.186Z,96.70
2022-08-22T23:25:24.123Z,96.70
2022-08-22T23:27:52.789Z,96.70
2022-08-22T23:30:21.960Z,96.70
2022-08-22T23:32:54.730Z,96.70
2022-08-22T23:35:23.181Z,96.70
2022-08-22T23:37:51.420Z,96.70
2022-08-22T23:40:20.087Z,96.70
2022-08-22T23:42:49.871Z,96.70
2022-08-22T23:45:18.272Z,96.70
2022-08-22T23:47:46.543Z,96.70
2022-08-22T23:50:14.782Z,96.70
2022-08-22T23:52:43.043Z,96.70
2022-08-22T23:55:11.291Z,96.70
2022-08-22T23:57:39.524Z,96.70
